Time;durP1;ratioP1;P1;durP2;ratioP2;P2;SDS_P1;SDS_P2;PMS_P1;PMS_P2;Temp;Humidity;BMP_temperature;BMP_pressure;BME280_temperature;BME280_humidity;BME280_pressure;Samples;Min_cycle;Max_cycle;Signal;HPM_P1;HPM_P2
2023/12/07 00:04:49;;;;;;;6.35;5.75;;;15.60;60.10;;;;;;10311420;28;20026;-64
2023/12/07 00:09:50;;;;;;;7.03;5.93;;;15.60;60.30;;;;;;10327707;28;20040;-63
2023/12/07 00:14:51;;;;;;;7.47;5.95;;;15.60;60.20;;;;;;10338714;28;20490;-64
2023/12/07 00:19:53;;;;;;;7.82;5.18;;;15.50;60.10;;;;;;10331853;28;20101;-64
2023/12/07 00:24:54;;;;;;;6.78;5.38;;;15.50;60.40;;;;;;10328249;28;20121;-64
2023/12/07 00:29:55;;;;;;;5.50;4.90;;;15.50;60.20;;;;;;10337146;28;20609;-64
2023/12/07 00:34:55;;;;;;;6.07;4.82;;;15.50;60.30;;;;;;10366865;28;20481;-64
2023/12/07 00:39:56;;;;;;;8.18;5.57;;;15.40;60.60;;;;;;10367166;28;20036;-63
2023/12/07 00:44:57;;;;;;;5.70;4.70;;;15.40;60.60;;;;;;10320233;28;20126;-63
2023/12/07 00:49:58;;;;;;;6.45;5.32;;;15.40;60.60;;;;;;10342935;28;20069;-63
2023/12/07 00:54:58;;;;;;;6.38;4.68;;;15.40;60.30;;;;;;10366686;28;20038;-64
2023/12/07 00:59:59;;;;;;;7.10;5.68;;;15.40;60.60;;;;;;10366647;28;20038;-63
2023/12/07 01:05:00;;;;;;;7.00;4.90;;;15.40;60.40;;;;;;10375955;28;20155;-63
2023/12/07 01:10:01;;;;;;;7.03;5.03;;;15.40;60.50;;;;;;10380150;28;20044;-63
2023/12/07 01:15:02;;;;;;;6.72;4.93;;;15.30;60.50;;;;;;10379762;28;20029;-63
2023/12/07 01:20:03;;;;;;;6.40;5.45;;;15.30;60.60;;;;;;10381578;28;20030;-64
2023/12/07 01:25:05;;;;;;;6.75;5.53;;;15.30;60.60;;;;;;10379269;28;20080;-64
2023/12/07 01:30:07;;;;;;;6.10;4.82;;;15.30;59.90;;;;;;10351503;28;20029;-63
2023/12/07 01:35:08;;;;;;;6.20;5.60;;;15.30;59.90;;;;;;10379375;28;20041;-63
2023/12/07 01:40:10;;;;;;;5.90;4.50;;;15.20;59.60;;;;;;10379311;28;20522;-63
2023/12/07 01:45:11;;;;;;;5.50;4.78;;;15.20;59.90;;;;;;10348482;28;20030;-63
2023/12/07 01:50:14;;;;;;;6.32;5.05;;;15.20;59.90;;;;;;10340146;28;20034;-63
2023/12/07 01:55:16;;;;;;;6.93;5.10;;;15.20;60.00;;;;;;10338234;28;20041;-63
2023/12/07 02:00:17;;;;;;;6.50;4.93;;;15.20;60.30;;;;;;10338320;28;20046;-63
2023/12/07 02:05:18;;;;;;;7.72;5.15;;;15.20;60.30;;;;;;10339474;28;20089;-63
2023/12/07 02:10:19;;;;;;;6.47;5.20;;;15.10;60.40;;;;;;10338288;28;20556;-63
2023/12/07 02:15:20;;;;;;;6.43;5.63;;;15.10;60.20;;;;;;10349018;28;20037;-63
2023/12/07 02:20:37;;;;;;;7.60;5.93;;;15.10;60.40;;;;;;10315589;28;20027;-63
2023/12/07 02:25:48;;;;;;;6.25;5.28;;;15.10;60.30;;;;;;10331301;28;20035;-63
2023/12/07 02:30:49;;;;;;;6.63;5.20;;;15.00;60.80;;;;;;10349295;28;20032;-63
2023/12/07 02:35:50;;;;;;;6.00;4.93;;;15.00;60.40;;;;;;10365709;28;20358;-63
2023/12/07 02:40:53;;;;;;;5.93;4.97;;;15.10;60.30;;;;;;10341882;28;20031;-63
2023/12/07 02:45:54;;;;;;;6.95;5.53;;;15.00;60.30;;;;;;10316505;28;20397;-63
2023/12/07 02:50:54;;;;;;;8.25;5.93;;;15.00;60.30;;;;;;10330670;28;20034;-63
2023/12/07 02:55:55;;;;;;;7.13;5.85;;;15.00;60.50;;;;;;10331816;28;20054;-63
2023/12/07 03:00:56;;;;;;;7.30;5.82;;;15.00;59.90;;;;;;10330435;28;20113;-63
2023/12/07 03:05:57;;;;;;;6.22;5.47;;;15.00;59.80;;;;;;10331127;28;20026;-64
2023/12/07 03:10:58;;;;;;;5.25;4.55;;;15.00;59.70;;;;;;10331333;28;20026;-63
2023/12/07 03:15:58;;;;;;;8.70;5.13;;;15.00;59.60;;;;;;10342293;28;20030;-63
2023/12/07 03:21:01;;;;;;;5.72;4.75;;;14.90;59.70;;;;;;10330847;28;20114;-63
2023/12/07 03:26:02;;;;;;;5.93;4.85;;;14.90;59.90;;;;;;10327765;28;20034;-63
2023/12/07 03:31:03;;;;;;;6.57;4.72;;;14.90;59.80;;;;;;10348961;28;20034;-63
2023/12/07 03:36:04;;;;;;;6.72;5.53;;;14.90;60.00;;;;;;10369056;28;20026;-63
2023/12/07 03:41:05;;;;;;;8.05;5.47;;;14.90;59.30;;;;;;10369160;28;20045;-63
2023/12/07 03:46:07;;;;;;;6.38;5.43;;;14.90;59.60;;;;;;10312129;28;20022;-63
2023/12/07 03:51:12;;;;;;;6.13;4.68;;;15.10;59.50;;;;;;10328466;28;20034;-63
2023/12/07 03:56:26;;;;;;;5.25;4.28;;;15.30;58.80;;;;;;10328116;28;20050;-63
2023/12/07 04:01:28;;;;;;;5.35;4.63;;;15.70;57.70;;;;;;10327933;28;20034;-63
2023/12/07 04:06:29;;;;;;;5.95;5.07;;;16.00;56.90;;;;;;10329002;28;20359;-63
2023/12/07 04:11:30;;;;;;;6.97;4.88;;;16.30;56.20;;;;;;10332746;28;20030;-63
2023/12/07 04:16:30;;;;;;;5.10;4.50;;;16.50;55.70;;;;;;10330289;28;20022;-65
2023/12/07 04:21:31;;;;;;;5.18;4.00;;;16.70;55.30;;;;;;10363623;28;20378;-65
2023/12/07 04:26:32;;;;;;;6.47;4.60;;;16.90;55.30;;;;;;10365056;28;20113;-64
2023/12/07 04:31:35;;;;;;;5.75;4.25;;;17.10;55.20;;;;;;10362250;28;20025;-63
2023/12/07 04:36:36;;;;;;;5.53;4.25;;;17.20;55.10;;;;;;10361916;28;20057;-63
2023/12/07 04:41:37;;;;;;;5.05;4.00;;;17.30;55.30;;;;;;10364892;28;20025;-63
2023/12/07 04:46:38;;;;;;;6.53;4.47;;;17.40;55.00;;;;;;10361839;28;20030;-62
2023/12/07 04:51:38;;;;;;;5.78;4.75;;;17.50;54.90;;;;;;10364767;28;20653;-62
2023/12/07 04:56:42;;;;;;;5.30;4.00;;;17.50;55.00;;;;;;10356268;28;20057;-62
2023/12/07 05:01:43;;;;;;;9.27;4.75;;;17.60;54.60;;;;;;10325563;28;20026;-63
2023/12/07 05:06:44;;;;;;;5.90;4.10;;;17.70;54.50;;;;;;10330113;28;20030;-63
2023/12/07 05:11:45;;;;;;;5.35;4.40;;;17.80;54.40;;;;;;10366241;28;20030;-63
2023/12/07 05:16:48;;;;;;;4.78;3.90;;;17.80;54.20;;;;;;10359787;28;20121;-63
2023/12/07 05:21:49;;;;;;;5.68;3.70;;;17.90;54.20;;;;;;10358004;28;20026;-63
2023/12/07 05:26:50;;;;;;;4.82;3.70;;;17.90;54.20;;;;;;10358833;28;20030;-63
2023/12/07 05:31:50;;;;;;;4.55;3.92;;;18.00;54.00;;;;;;10363313;28;20034;-63
2023/12/07 05:36:51;;;;;;;6.07;4.25;;;18.00;54.00;;;;;;10309221;28;20544;-63
2023/12/07 05:41:52;;;;;;;5.78;3.90;;;18.10;54.00;;;;;;10329655;28;20030;-63
2023/12/07 05:46:54;;;;;;;4.32;3.50;;;18.10;54.00;;;;;;10326772;28;20401;-63
2023/12/07 05:51:55;;;;;;;5.65;3.83;;;18.10;53.90;;;;;;10329704;28;20081;-63
2023/12/07 05:56:55;;;;;;;4.60;3.42;;;18.20;53.90;;;;;;10338824;28;20551;-63
2023/12/07 06:01:56;;;;;;;7.68;3.80;;;18.10;54.20;;;;;;10334292;28;20030;-63
2023/12/07 06:06:57;;;;;;;6.57;3.00;;;18.20;54.50;;;;;;10333411;28;20055;-65
2023/12/07 06:11:57;;;;;;;7.53;3.63;;;18.20;54.80;;;;;;10333189;28;20049;-62
2023/12/07 06:16:59;;;;;;;8.90;3.63;;;18.30;54.70;;;;;;10346170;28;20034;-63
2023/12/07 06:21:59;;;;;;;8.68;4.00;;;18.30;55.70;;;;;;10332637;28;20788;-60
2023/12/07 06:27:01;;;;;;;13.05;3.72;;;18.30;56.10;;;;;;10338177;28;20037;-61
2023/12/07 06:32:03;;;;;;;12.82;4.63;;;18.30;56.60;;;;;;10367932;28;20039;-61
2023/12/07 06:37:04;;;;;;;9.65;3.25;;;18.30;57.20;;;;;;10332698;28;20077;-62
2023/12/07 06:42:05;;;;;;;7.13;3.90;;;18.40;56.40;;;;;;10333359;28;20057;-60
2023/12/07 06:47:05;;;;;;;10.70;3.60;;;18.40;56.50;;;;;;10345747;28;20030;-60
2023/12/07 06:52:06;;;;;;;17.55;4.88;;;18.30;56.70;;;;;;10333998;28;20027;-60
2023/12/07 06:57:07;;;;;;;13.90;4.15;;;18.40;56.60;;;;;;10329988;28;20046;-59
2023/12/07 07:02:08;;;;;;;10.90;4.32;;;18.50;56.20;;;;;;10330063;28;20065;-60
2023/12/07 07:07:09;;;;;;;15.98;3.97;;;18.50;56.20;;;;;;10342132;28;20752;-58
2023/12/07 07:12:10;;;;;;;14.27;3.97;;;18.50;56.20;;;;;;10364100;28;20064;-61
2023/12/07 07:17:11;;;;;;;14.00;3.75;;;18.50;56.10;;;;;;10354267;28;20054;-61
2023/12/07 07:22:11;;;;;;;16.48;4.57;;;18.30;56.10;;;;;;10343063;28;20389;-60
2023/12/07 07:27:12;;;;;;;8.38;4.20;;;18.20;56.10;;;;;;10363270;28;20401;-60
2023/12/07 07:32:13;;;;;;;9.98;4.10;;;18.10;56.20;;;;;;10354099;28;20030;-60
2023/12/07 07:37:13;;;;;;;9.15;4.13;;;17.90;56.50;;;;;;10367831;28;20025;-60
2023/12/07 07:42:14;;;;;;;6.18;3.63;;;17.70;56.90;;;;;;10359325;28;20036;-60
2023/12/07 07:47:15;;;;;;;6.30;3.58;;;17.60;57.20;;;;;;10328692;28;20041;-60
2023/12/07 07:52:16;;;;;;;7.85;3.70;;;17.50;57.50;;;;;;10326972;28;20045;-60
2023/12/07 07:57:17;;;;;;;6.97;4.15;;;17.30;57.80;;;;;;10326754;28;20038;-60
2023/12/07 08:02:18;;;;;;;5.28;3.47;;;17.20;57.90;;;;;;10327205;28;20030;-60
2023/12/07 08:07:19;;;;;;;6.18;3.92;;;17.10;58.20;;;;;;10327830;28;20038;-60
2023/12/07 08:12:22;;;;;;;7.50;3.60;;;16.90;58.50;;;;;;10325412;28;20038;-63
2023/12/07 08:17:23;;;;;;;6.82;3.58;;;16.80;58.80;;;;;;10341013;28;20371;-64
2023/12/07 08:22:24;;;;;;;4.57;3.10;;;16.70;59.00;;;;;;10326679;28;20026;-64
2023/12/07 08:27:24;;;;;;;7.88;3.90;;;16.60;59.10;;;;;;10326573;28;20035;-64
2023/12/07 08:32:25;;;;;;;5.45;3.38;;;16.60;59.20;;;;;;10331935;28;20034;-63
2023/12/07 08:37:26;;;;;;;10.43;4.00;;;16.50;59.30;;;;;;10325784;28;20037;-64
2023/12/07 08:42:27;;;;;;;5.38;3.50;;;16.40;59.40;;;;;;10329878;28;20041;-63
2023/12/07 08:47:30;;;;;;;5.95;3.75;;;16.40;59.50;;;;;;10323847;28;20034;-63
2023/12/07 08:52:30;;;;;;;4.53;3.53;;;16.30;59.50;;;;;;10338640;28;20034;-63
2023/12/07 08:57:31;;;;;;;5.75;3.60;;;16.20;59.60;;;;;;10324837;28;20058;-62
2023/12/07 09:02:32;;;;;;;5.07;3.95;;;16.20;59.70;;;;;;10326648;28;20038;-62
2023/12/07 09:07:32;;;;;;;4.35;3.55;;;16.10;59.80;;;;;;10325983;28;20676;-63
2023/12/07 09:12:35;;;;;;;7.28;3.85;;;16.10;59.90;;;;;;10324913;28;20486;-63
2023/12/07 09:17:39;;;;;;;6.15;4.25;;;16.00;59.90;;;;;;10339456;28;20352;-63
2023/12/07 09:22:49;;;;;;;5.68;3.63;;;16.00;59.80;;;;;;10325227;28;20463;-63
2023/12/07 09:27:51;;;;;;;5.57;3.85;;;15.90;60.00;;;;;;10333135;28;20410;-64
2023/12/07 09:32:51;;;;;;;5.63;4.32;;;15.90;60.10;;;;;;10354534;28;20398;-64
2023/12/07 09:37:52;;;;;;;5.68;4.32;;;15.80;60.20;;;;;;10344069;28;20041;-63
2023/12/07 09:42:53;;;;;;;4.80;4.30;;;15.80;60.20;;;;;;10360437;28;20034;-63
2023/12/07 09:47:54;;;;;;;5.40;4.18;;;15.80;60.40;;;;;;10331900;28;20042;-63
2023/12/07 09:52:57;;;;;;;4.80;3.63;;;15.70;60.40;;;;;;10333487;28;20505;-62
2023/12/07 09:57:58;;;;;;;4.93;3.53;;;15.70;60.50;;;;;;10331306;28;20124;-64
2023/12/07 10:02:59;;;;;;;5.07;3.50;;;15.60;60.50;;;;;;10332761;28;20045;-63
2023/12/07 10:08:00;;;;;;;5.50;4.00;;;15.60;60.40;;;;;;10332758;28;20034;-63
2023/12/07 10:13:01;;;;;;;5.05;3.47;;;15.60;60.50;;;;;;10332495;28;20452;-63
2023/12/07 10:18:01;;;;;;;4.32;3.60;;;15.50;60.50;;;;;;10345434;28;20092;-63
2023/12/07 10:23:08;;;;;;;4.50;3.47;;;15.50;60.40;;;;;;10331815;28;20026;-63
2023/12/07 10:28:12;;;;;;;5.03;4.03;;;15.50;60.50;;;;;;10331058;28;20035;-63
2023/12/07 10:33:13;;;;;;;4.40;3.80;;;15.50;60.40;;;;;;10352309;28;20050;-64
2023/12/07 10:38:14;;;;;;;5.03;3.75;;;15.40;60.40;;;;;;10333457;28;20053;-63
2023/12/07 10:43:19;;;;;;;5.72;3.67;;;15.40;60.40;;;;;;10369991;28;20037;-63
2023/12/07 10:48:20;;;;;;;4.72;3.40;;;15.40;60.40;;;;;;10370517;28;20261;-66
2023/12/07 10:53:30;;;;;;;4.75;3.40;;;15.40;60.30;;;;;;10369988;28;20037;-63
2023/12/07 10:58:34;;;;;;;5.40;3.08;;;15.40;60.40;;;;;;10370225;28;20085;-63
2023/12/07 11:03:36;;;;;;;4.30;3.25;;;15.30;60.40;;;;;;10369608;28;20084;-64
2023/12/07 11:08:49;;;;;;;5.50;3.67;;;15.30;60.50;;;;;;10369807;28;20421;-64
2023/12/07 11:13:58;;;;;;;4.22;3.42;;;15.30;60.40;;;;;;10369763;28;20029;-63
2023/12/07 11:18:59;;;;;;;4.10;3.05;;;15.30;60.50;;;;;;10322472;28;20113;-65
2023/12/07 11:24:01;;;;;;;3.38;2.58;;;15.30;60.50;;;;;;10330513;28;20561;-64
2023/12/07 11:29:02;;;;;;;4.82;3.50;;;15.30;60.60;;;;;;10330019;28;20034;-63
2023/12/07 11:34:07;;;;;;;4.85;3.90;;;15.30;60.40;;;;;;10350022;28;20036;-64
2023/12/07 11:39:08;;;;;;;5.97;3.88;;;15.20;60.50;;;;;;10328705;28;20033;-63
2023/12/07 11:44:10;;;;;;;4.60;3.45;;;15.20;60.50;;;;;;10329512;28;20028;-63
2023/12/07 11:49:12;;;;;;;4.75;3.60;;;15.20;60.60;;;;;;10327771;28;20116;-63
2023/12/07 11:54:15;;;;;;;4.88;3.65;;;15.20;60.60;;;;;;10327318;28;20061;-65
2023/12/07 11:59:16;;;;;;;5.55;3.60;;;15.20;60.70;;;;;;10328702;28;20046;-62
2023/12/07 12:04:17;;;;;;;4.75;3.53;;;15.10;60.60;;;;;;10325515;28;20489;-63
2023/12/07 12:09:17;;;;;;;4.68;3.58;;;15.10;60.60;;;;;;10324141;28;20053;-63
2023/12/07 12:14:19;;;;;;;5.82;3.42;;;15.10;60.70;;;;;;10329059;28;20046;-64
2023/12/07 12:19:22;;;;;;;4.40;3.20;;;15.10;60.60;;;;;;10314811;28;20027;-63
2023/12/07 12:24:23;;;;;;;4.20;3.20;;;15.10;60.80;;;;;;10333358;28;20045;-64
2023/12/07 12:29:24;;;;;;;4.40;3.03;;;15.10;60.70;;;;;;10346745;28;20042;-63
2023/12/07 12:34:24;;;;;;;5.53;3.58;;;15.10;60.70;;;;;;10339363;28;20034;-64
2023/12/07 12:39:29;;;;;;;4.57;3.75;;;15.00;60.70;;;;;;10324493;28;20033;-64
2023/12/07 12:44:31;;;;;;;5.53;3.75;;;15.00;60.80;;;;;;10325530;28;20045;-64
2023/12/07 12:49:36;;;;;;;5.10;3.72;;;15.00;60.70;;;;;;10323051;28;20030;-63
2023/12/07 12:54:37;;;;;;;5.47;3.75;;;15.00;60.60;;;;;;10324251;28;20042;-63
2023/12/07 12:59:38;;;;;;;4.57;3.45;;;15.00;60.60;;;;;;10324450;28;20050;-63
2023/12/07 13:04:40;;;;;;;5.68;3.55;;;15.00;60.70;;;;;;10325904;28;20030;-63
2023/12/07 13:09:41;;;;;;;4.80;3.85;;;14.90;60.70;;;;;;10324733;28;20031;-64
2023/12/07 13:14:41;;;;;;;4.95;3.90;;;15.00;60.70;;;;;;10333188;28;20109;-64
2023/12/07 13:19:42;;;;;;;5.30;3.95;;;14.90;60.70;;;;;;10329069;28;20030;-65
2023/12/07 13:24:43;;;;;;;5.60;4.10;;;14.90;60.60;;;;;;10325417;28;20036;-65
2023/12/07 13:29:43;;;;;;;4.82;3.90;;;14.90;60.70;;;;;;10332961;28;20653;-64
2023/12/07 13:34:44;;;;;;;4.78;3.92;;;14.90;60.50;;;;;;10339057;28;20144;-63
2023/12/07 13:39:45;;;;;;;5.15;3.50;;;14.90;60.60;;;;;;10324477;28;20585;-63
2023/12/07 13:44:45;;;;;;;5.55;3.78;;;14.80;60.60;;;;;;10327934;28;20363;-65
2023/12/07 13:49:46;;;;;;;4.85;3.67;;;14.80;60.60;;;;;;10340190;28;20034;-64
2023/12/07 13:54:48;;;;;;;4.80;3.38;;;14.80;60.60;;;;;;10307497;28;20038;-63
2023/12/07 13:59:50;;;;;;;5.57;3.35;;;14.80;60.50;;;;;;10308015;28;20077;-63
2023/12/07 14:04:51;;;;;;;5.18;4.10;;;14.80;60.60;;;;;;10307586;28;20089;-63
2023/12/07 14:09:52;;;;;;;5.63;4.07;;;14.80;61.10;;;;;;10307383;28;20081;-64
2023/12/07 14:14:55;;;;;;;6.70;4.05;;;14.80;60.50;;;;;;10340622;28;20031;-64
2023/12/07 14:19:56;;;;;;;4.40;3.20;;;14.80;60.50;;;;;;10316653;28;20028;-64
2023/12/07 14:24:57;;;;;;;4.55;3.67;;;14.80;60.70;;;;;;10332015;28;20036;-64
2023/12/07 14:29:58;;;;;;;5.30;3.70;;;14.70;60.50;;;;;;10366550;28;20485;-64
2023/12/07 14:34:59;;;;;;;4.65;3.00;;;14.80;60.80;;;;;;10370051;28;20501;-64
2023/12/07 14:39:59;;;;;;;4.38;2.95;;;15.00;60.50;;;;;;10370514;28;20038;-63
2023/12/07 14:45:00;;;;;;;4.30;3.20;;;15.20;60.20;;;;;;10340858;28;20038;-64
2023/12/07 14:50:01;;;;;;;6.25;4.32;;;15.50;59.40;;;;;;10330757;28;20080;-63
2023/12/07 14:55:03;;;;;;;4.30;3.22;;;15.70;58.50;;;;;;10329177;28;20433;-63
2023/12/07 15:00:05;;;;;;;4.72;3.13;;;15.90;57.70;;;;;;10334949;28;20033;-61
2023/12/07 15:05:08;;;;;;;4.90;3.90;;;16.10;57.30;;;;;;10350941;28;20089;-67
2023/12/07 15:10:09;;;;;;;5.88;3.63;;;16.30;56.70;;;;;;10365801;28;20633;-65
2023/12/07 15:15:10;;;;;;;5.50;3.45;;;16.60;56.60;;;;;;10358829;28;20087;-67
2023/12/07 15:20:11;;;;;;;5.32;3.72;;;16.80;55.50;;;;;;10330375;28;20058;-66
2023/12/07 15:25:12;;;;;;;4.30;3.10;;;16.90;55.20;;;;;;10347507;28;20439;-67
2023/12/07 15:30:13;;;;;;;5.20;3.85;;;17.00;55.00;;;;;;10358774;28;20057;-67
2023/12/07 15:35:14;;;;;;;5.07;3.75;;;17.20;54.80;;;;;;10360683;28;20358;-67
2023/12/07 15:40:15;;;;;;;4.68;3.83;;;17.20;54.70;;;;;;10362106;28;20049;-66
2023/12/07 15:45:15;;;;;;;3.92;3.22;;;17.30;54.50;;;;;;10359315;28;20515;-66
2023/12/07 15:50:16;;;;;;;4.05;3.33;;;17.40;54.40;;;;;;10363310;28;20501;-66
2023/12/07 15:55:17;;;;;;;4.90;3.63;;;17.50;54.30;;;;;;10335271;28;20038;-67
2023/12/07 16:00:18;;;;;;;4.80;3.40;;;17.50;54.40;;;;;;10341860;28;20042;-67
2023/12/07 16:05:20;;;;;;;4.45;3.90;;;17.60;54.20;;;;;;10368722;28;20125;-67
2023/12/07 16:10:20;;;;;;;4.00;3.20;;;17.60;54.10;;;;;;10368847;28;20034;-67
2023/12/07 16:15:21;;;;;;;4.18;2.88;;;17.70;54.10;;;;;;10366638;28;20748;-67
2023/12/07 16:20:22;;;;;;;4.13;3.45;;;17.70;54.00;;;;;;10327281;28;20100;-68
2023/12/07 16:25:23;;;;;;;4.78;3.50;;;17.70;53.90;;;;;;10355612;28;20615;-67
2023/12/07 16:30:23;;;;;;;3.83;3.33;;;17.70;53.90;;;;;;10347639;28;20042;-66
2023/12/07 16:35:24;;;;;;;4.13;3.50;;;17.80;53.90;;;;;;10344718;28;20482;-66
2023/12/07 16:40:25;;;;;;;4.30;3.40;;;17.80;53.90;;;;;;10325149;28;20030;-65
2023/12/07 16:45:25;;;;;;;4.30;3.15;;;17.90;53.80;;;;;;10339602;28;20038;-64
2023/12/07 16:50:26;;;;;;;4.00;3.22;;;17.90;53.90;;;;;;10351584;28;20030;-66
2023/12/07 16:55:28;;;;;;;7.45;4.30;;;17.60;54.40;;;;;;10326278;28;20030;-63
2023/12/07 17:00:28;;;;;;;8.90;4.32;;;17.60;54.70;;;;;;10355615;28;20030;-63
2023/12/07 17:05:29;;;;;;;9.80;5.38;;;17.60;54.70;;;;;;10361521;28;20034;-64
2023/12/07 17:10:30;;;;;;;30.45;8.57;;;17.90;54.40;;;;;;10358521;28;20041;-63
2023/12/07 17:15:31;;;;;;;15.55;6.47;;;17.90;60.30;;;;;;10337384;28;20049;-58
2023/12/07 17:20:31;;;;;;;8.93;5.22;;;18.00;60.60;;;;;;10363475;28;20030;-61
2023/12/07 17:25:33;;;;;;;18.25;5.50;;;18.20;59.40;;;;;;10365352;28;20037;-62
2023/12/07 17:30:34;;;;;;;15.32;6.13;;;18.30;58.50;;;;;;10340893;28;20042;-61
2023/12/07 17:35:36;;;;;;;15.38;5.32;;;18.50;58.30;;;;;;10344092;28;20053;-63
2023/12/07 17:40:36;;;;;;;14.20;5.72;;;18.50;57.90;;;;;;10329672;28;20032;-61
2023/12/07 17:45:38;;;;;;;8.95;4.75;;;18.40;58.20;;;;;;10327720;28;20493;-61
2023/12/07 17:50:39;;;;;;;10.52;6.18;;;18.40;57.60;;;;;;10333046;28;20057;-64
2023/12/07 17:55:40;;;;;;;22.35;5.97;;;18.50;57.90;;;;;;10330726;28;20040;-57
2023/12/07 18:00:41;;;;;;;11.70;4.20;;;18.60;57.60;;;;;;10338582;28;20195;-60
2023/12/07 18:05:41;;;;;;;9.77;4.38;;;18.50;57.60;;;;;;10366444;28;20076;-62
2023/12/07 18:10:42;;;;;;;11.32;4.95;;;18.60;57.90;;;;;;10363339;28;20076;-63
2023/12/07 18:15:43;;;;;;;13.00;4.20;;;18.60;57.30;;;;;;10345411;28;20502;-64
2023/12/07 18:20:43;;;;;;;10.18;4.85;;;18.60;56.50;;;;;;10346639;28;20034;-63
2023/12/07 18:25:44;;;;;;;7.15;4.57;;;18.60;56.30;;;;;;10347627;28;20034;-66
2023/12/07 18:30:45;;;;;;;8.20;4.10;;;18.60;56.70;;;;;;10347743;28;20022;-65
2023/12/07 18:35:45;;;;;;;7.45;3.90;;;18.70;56.40;;;;;;10367712;28;20041;-63
2023/12/07 18:40:46;;;;;;;12.25;3.80;;;18.60;56.30;;;;;;10369097;28;20030;-63
2023/12/07 18:45:47;;;;;;;10.27;3.88;;;18.70;56.30;;;;;;10370249;28;20035;-63
2023/12/07 18:50:48;;;;;;;8.75;4.25;;;18.60;56.40;;;;;;10365991;28;20133;-62
2023/12/07 18:55:49;;;;;;;7.38;4.15;;;18.50;56.50;;;;;;10367106;28;20121;-63
2023/12/07 19:00:51;;;;;;;6.82;3.60;;;18.50;56.50;;;;;;10354204;28;20533;-62
2023/12/07 19:05:52;;;;;;;7.30;3.70;;;18.40;56.40;;;;;;10354756;28;20374;-63
2023/12/07 19:10:53;;;;;;;12.38;4.57;;;18.50;56.30;;;;;;10360779;28;20058;-63
2023/12/07 19:15:53;;;;;;;9.88;3.80;;;18.40;56.70;;;;;;10355403;28;20034;-64
2023/12/07 19:20:54;;;;;;;7.95;3.90;;;18.40;56.80;;;;;;10368338;28;20033;-64
2023/12/07 19:25:55;;;;;;;6.57;3.22;;;18.30;57.20;;;;;;10363446;28;20219;-63
2023/12/07 19:30:55;;;;;;;5.97;3.47;;;18.30;56.80;;;;;;10354376;28;20022;-63
2023/12/07 19:35:56;;;;;;;6.60;3.28;;;18.30;56.80;;;;;;10359244;28;20241;-62
2023/12/07 19:40:57;;;;;;;4.68;3.40;;;18.30;56.90;;;;;;10364104;28;20057;-62
2023/12/07 19:45:58;;;;;;;5.90;3.25;;;18.30;57.10;;;;;;10364802;28;20033;-62
2023/12/07 19:50:59;;;;;;;9.60;3.97;;;18.20;57.20;;;;;;10363708;28;20144;-62
2023/12/07 19:55:59;;;;;;;6.20;2.90;;;18.30;57.10;;;;;;10336213;28;20530;-64
2023/12/07 20:01:00;;;;;;;5.80;3.45;;;18.20;57.40;;;;;;10334093;28;20481;-63
2023/12/07 20:06:02;;;;;;;6.25;3.75;;;18.10;57.60;;;;;;10357775;28;20482;-64
2023/12/07 20:11:03;;;;;;;6.95;3.25;;;17.90;57.90;;;;;;10326624;28;20391;-64
2023/12/07 20:16:04;;;;;;;5.40;3.15;;;17.80;58.20;;;;;;10344559;28;20034;-63
2023/12/07 20:21:06;;;;;;;6.13;2.90;;;17.70;58.50;;;;;;10357614;28;20049;-64
2023/12/07 20:26:07;;;;;;;5.53;3.30;;;17.60;58.90;;;;;;10361951;28;20030;-63
2023/12/07 20:31:08;;;;;;;4.10;2.72;;;17.40;59.00;;;;;;10364115;28;20416;-64
2023/12/07 20:36:09;;;;;;;6.47;2.90;;;17.30;59.30;;;;;;10363809;28;20033;-63
2023/12/07 20:41:10;;;;;;;6.93;3.17;;;17.20;59.60;;;;;;10350274;28;20466;-63
2023/12/07 20:46:11;;;;;;;4.53;3.15;;;17.10;59.80;;;;;;10353084;28;20093;-64
2023/12/07 20:51:11;;;;;;;4.55;3.20;;;17.00;60.10;;;;;;10328253;28;20033;-63
2023/12/07 20:56:17;;;;;;;4.30;3.08;;;16.90;60.10;;;;;;10327959;28;20042;-63
2023/12/07 21:01:18;;;;;;;4.90;3.28;;;16.80;60.20;;;;;;10330625;28;20066;-63
2023/12/07 21:06:19;;;;;;;5.22;2.85;;;16.70;60.40;;;;;;10367295;28;20515;-63
2023/12/07 21:11:20;;;;;;;4.07;3.20;;;16.70;60.60;;;;;;10366446;28;20025;-63
2023/12/07 21:16:20;;;;;;;5.38;2.80;;;16.60;60.70;;;;;;10366402;28;20026;-63
2023/12/07 21:21:21;;;;;;;5.45;3.15;;;16.50;60.70;;;;;;10341101;28;20045;-64
2023/12/07 21:26:22;;;;;;;4.72;2.92;;;16.50;60.80;;;;;;10374971;28;20034;-64
2023/12/07 21:31:23;;;;;;;4.75;3.13;;;16.40;60.90;;;;;;10354411;28;20022;-64
2023/12/07 21:36:23;;;;;;;5.43;2.72;;;16.40;61.00;;;;;;10334943;28;20026;-64
2023/12/07 21:41:24;;;;;;;4.15;2.45;;;16.30;61.10;;;;;;10336216;28;20037;-64
2023/12/07 21:46:25;;;;;;;4.13;2.75;;;16.20;61.10;;;;;;10334862;28;20045;-64
2023/12/07 21:51:25;;;;;;;5.57;3.47;;;16.20;61.30;;;;;;10360456;28;20034;-64
2023/12/07 21:56:26;;;;;;;4.60;3.15;;;16.20;61.30;;;;;;10334389;28;20050;-64
2023/12/07 22:01:27;;;;;;;3.83;1.92;;;16.10;61.40;;;;;;10332820;28;20075;-63
2023/12/07 22:06:28;;;;;;;3.22;2.33;;;16.10;61.40;;;;;;10344594;28;20026;-62
2023/12/07 22:11:28;;;;;;;6.53;2.97;;;16.00;61.50;;;;;;10339156;28;20486;-62
2023/12/07 22:16:29;;;;;;;4.22;2.63;;;16.00;61.50;;;;;;10346922;28;20382;-62
2023/12/07 22:21:30;;;;;;;5.10;3.28;;;16.00;61.60;;;;;;10360069;28;20042;-62
2023/12/07 22:26:30;;;;;;;4.22;3.25;;;15.90;61.60;;;;;;10333267;28;20034;-63
2023/12/07 22:31:31;;;;;;;5.80;3.03;;;15.90;61.60;;;;;;10352886;28;20044;-63
2023/12/07 22:36:32;;;;;;;4.70;3.38;;;15.80;61.60;;;;;;10332929;28;20026;-63
2023/12/07 22:41:32;;;;;;;4.07;3.30;;;15.80;61.90;;;;;;10333240;28;20027;-63
2023/12/07 22:46:33;;;;;;;5.43;2.97;;;15.80;61.80;;;;;;10345727;28;20038;-62
2023/12/07 22:51:34;;;;;;;3.38;2.63;;;15.70;61.70;;;;;;10345385;28;20421;-62
2023/12/07 22:56:35;;;;;;;3.30;2.70;;;15.70;61.80;;;;;;10332185;28;20054;-63
2023/12/07 23:01:35;;;;;;;4.78;3.08;;;15.70;61.80;;;;;;10346813;28;20169;-62
2023/12/07 23:06:36;;;;;;;5.13;3.35;;;15.70;61.90;;;;;;10330663;28;20022;-63
2023/12/07 23:11:37;;;;;;;5.50;3.65;;;15.60;61.80;;;;;;10330733;28;20027;-62
2023/12/07 23:16:37;;;;;;;4.93;3.33;;;15.60;61.80;;;;;;10345108;28;20052;-62
2023/12/07 23:21:38;;;;;;;4.75;3.35;;;15.60;61.80;;;;;;10344196;28;20034;-62
2023/12/07 23:26:43;;;;;;;3.03;2.53;;;15.60;61.90;;;;;;10329737;28;20041;-62
2023/12/07 23:31:44;;;;;;;6.63;3.15;;;15.60;62.00;;;;;;10352209;28;20452;-62
2023/12/07 23:36:46;;;;;;;4.22;2.88;;;15.50;61.90;;;;;;10330693;28;20073;-63
2023/12/07 23:41:47;;;;;;;4.03;2.75;;;15.50;61.90;;;;;;10332593;28;20044;-63
2023/12/07 23:46:48;;;;;;;4.03;2.90;;;15.50;61.90;;;;;;10330522;28;20377;-62
2023/12/07 23:51:49;;;;;;;4.43;2.88;;;15.50;62.00;;;;;;10328350;28;20061;-63
2023/12/07 23:56:50;;;;;;;4.97;3.30;;;15.40;62.10;;;;;;10344809;28;20048;-62
